sensor_id;sensor_type;location;lat;lon;timestamp;pressure;altitude;pressure_sealevel;temperature;humidity
54920;BME280;63804;53.120;8.764;2024-03-08T00:00:14;102426.06;;;4.08;70.15
54920;BME280;63804;53.120;8.764;2024-03-08T00:02:47;102422.56;;;4.09;70.05
54920;BME280;63804;53.120;8.764;2024-03-08T00:05:15;102428.63;;;4.12;69.67
54920;BME280;63804;53.120;8.764;2024-03-08T00:07:42;102431.56;;;3.96;69.92
54920;BME280;63804;53.120;8.764;2024-03-08T00:10:11;102425.25;;;4.04;70.00
54920;BME280;63804;53.120;8.764;2024-03-08T00:12:44;102427.63;;;4.18;69.51
54920;BME280;63804;53.120;8.764;2024-03-08T00:15:16;102440.94;;;4.09;69.60
54920;BME280;63804;53.120;8.764;2024-03-08T00:17:46;102423.59;;;4.02;69.55
54920;BME280;63804;53.120;8.764;2024-03-08T00:20:16;102420.81;;;4.09;69.42
54920;BME280;63804;53.120;8.764;2024-03-08T00:22:46;102423.53;;;4.05;69.62
54920;BME280;63804;53.120;8.764;2024-03-08T00:25:14;102424.19;;;4.16;68.89
54920;BME280;63804;53.120;8.764;2024-03-08T00:27:42;102434.94;;;4.02;69.42
54920;BME280;63804;53.120;8.764;2024-03-08T00:30:09;102428.59;;;4.14;69.02
54920;BME280;63804;53.120;8.764;2024-03-08T00:32:38;102422.47;;;4.13;68.70
54920;BME280;63804;53.120;8.764;2024-03-08T00:35:05;102426.13;;;4.06;68.48
54920;BME280;63804;53.120;8.764;2024-03-08T00:37:35;102429.38;;;4.18;68.48
54920;BME280;63804;53.120;8.764;2024-03-08T00:40:02;102429.50;;;4.11;68.54
54920;BME280;63804;53.120;8.764;2024-03-08T00:42:30;102428.19;;;3.89;68.67
54920;BME280;63804;53.120;8.764;2024-03-08T00:44:58;102423.69;;;3.97;68.78
54920;BME280;63804;53.120;8.764;2024-03-08T00:47:26;102421.88;;;3.99;68.67
54920;BME280;63804;53.120;8.764;2024-03-08T00:49:54;102426.88;;;4.13;68.36
54920;BME280;63804;53.120;8.764;2024-03-08T00:52:23;102405.25;;;4.02;68.48
54920;BME280;63804;53.120;8.764;2024-03-08T00:54:51;102409.78;;;3.94;68.38
54920;BME280;63804;53.120;8.764;2024-03-08T00:57:18;102421.94;;;3.96;68.66
54920;BME280;63804;53.120;8.764;2024-03-08T00:59:46;102410.69;;;3.91;68.52
54920;BME280;63804;53.120;8.764;2024-03-08T01:02:14;102412.25;;;4.00;68.48
54920;BME280;63804;53.120;8.764;2024-03-08T01:04:41;102409.69;;;3.97;68.48
54920;BME280;63804;53.120;8.764;2024-03-08T01:07:08;102410.56;;;3.97;68.50
54920;BME280;63804;53.120;8.764;2024-03-08T01:09:36;102406.59;;;3.78;68.89
54920;BME280;63804;53.120;8.764;2024-03-08T01:12:03;102400.31;;;3.86;68.70
54920;BME280;63804;53.120;8.764;2024-03-08T01:14:31;102397.00;;;3.75;69.17
54920;BME280;63804;53.120;8.764;2024-03-08T01:16:59;102396.97;;;3.77;69.11
54920;BME280;63804;53.120;8.764;2024-03-08T01:19:26;102376.91;;;3.76;68.85
54920;BME280;63804;53.120;8.764;2024-03-08T01:21:54;102381.25;;;3.77;68.85
54920;BME280;63804;53.120;8.764;2024-03-08T01:24:23;102375.50;;;3.58;69.44
54920;BME280;63804;53.120;8.764;2024-03-08T01:26:50;102373.72;;;3.60;69.46
54920;BME280;63804;53.120;8.764;2024-03-08T01:29:18;102372.09;;;3.53;69.40
54920;BME280;63804;53.120;8.764;2024-03-08T01:31:46;102364.94;;;3.62;69.18
54920;BME280;63804;53.120;8.764;2024-03-08T01:34:13;102357.88;;;3.67;69.12
54920;BME280;63804;53.120;8.764;2024-03-08T01:36:40;102360.44;;;3.69;69.27
54920;BME280;63804;53.120;8.764;2024-03-08T01:39:07;102350.78;;;3.73;68.93
54920;BME280;63804;53.120;8.764;2024-03-08T01:41:36;102348.53;;;3.53;69.59
54920;BME280;63804;53.120;8.764;2024-03-08T01:44:03;102346.78;;;3.53;69.54
54920;BME280;63804;53.120;8.764;2024-03-08T01:46:33;102333.69;;;3.53;69.67
54920;BME280;63804;53.120;8.764;2024-03-08T01:49:01;102335.53;;;3.48;69.48
54920;BME280;63804;53.120;8.764;2024-03-08T01:51:29;102347.91;;;3.40;69.92
54920;BME280;63804;53.120;8.764;2024-03-08T01:54:01;102332.22;;;3.38;69.76
54920;BME280;63804;53.120;8.764;2024-03-08T01:56:30;102343.53;;;3.40;70.18
54920;BME280;63804;53.120;8.764;2024-03-08T01:58:59;102330.34;;;3.45;69.78
54920;BME280;63804;53.120;8.764;2024-03-08T02:01:27;102328.63;;;3.44;70.08
54920;BME280;63804;53.120;8.764;2024-03-08T02:03:56;102327.09;;;3.32;70.03
54920;BME280;63804;53.120;8.764;2024-03-08T02:06:23;102335.06;;;3.26;70.36
54920;BME280;63804;53.120;8.764;2024-03-08T02:08:51;102330.75;;;3.22;70.74
54920;BME280;63804;53.120;8.764;2024-03-08T02:11:19;102321.88;;;3.31;70.24
54920;BME280;63804;53.120;8.764;2024-03-08T02:13:47;102326.34;;;3.24;70.32
54920;BME280;63804;53.120;8.764;2024-03-08T02:16:21;102327.97;;;3.31;70.52
54920;BME280;63804;53.120;8.764;2024-03-08T02:18:48;102321.13;;;3.24;70.47
54920;BME280;63804;53.120;8.764;2024-03-08T02:21:17;102317.75;;;3.17;71.03
54920;BME280;63804;53.120;8.764;2024-03-08T02:23:51;102316.69;;;3.28;70.84
54920;BME280;63804;53.120;8.764;2024-03-08T02:26:22;102321.06;;;3.29;70.70
54920;BME280;63804;53.120;8.764;2024-03-08T02:28:49;102313.22;;;3.27;70.65
54920;BME280;63804;53.120;8.764;2024-03-08T02:31:17;102321.16;;;3.23;71.11
54920;BME280;63804;53.120;8.764;2024-03-08T02:33:44;102305.44;;;3.23;71.12
54920;BME280;63804;53.120;8.764;2024-03-08T02:36:11;102307.97;;;3.29;71.21
54920;BME280;63804;53.120;8.764;2024-03-08T02:38:39;102305.50;;;3.21;71.72
54920;BME280;63804;53.120;8.764;2024-03-08T02:41:09;102304.19;;;3.44;70.91
54920;BME280;63804;53.120;8.764;2024-03-08T02:43:37;102302.44;;;3.44;70.93
54920;BME280;63804;53.120;8.764;2024-03-08T02:46:05;102285.22;;;3.31;71.53
54920;BME280;63804;53.120;8.764;2024-03-08T02:48:32;102292.84;;;3.43;70.80
54920;BME280;63804;53.120;8.764;2024-03-08T02:51:00;102289.25;;;3.47;70.73
54920;BME280;63804;53.120;8.764;2024-03-08T02:53:31;102288.34;;;3.51;70.94
54920;BME280;63804;53.120;8.764;2024-03-08T02:55:58;102284.94;;;3.46;70.92
54920;BME280;63804;53.120;8.764;2024-03-08T02:58:26;102285.84;;;3.45;71.08
54920;BME280;63804;53.120;8.764;2024-03-08T03:00:53;102286.22;;;3.25;71.76
54920;BME280;63804;53.120;8.764;2024-03-08T03:03:20;102284.25;;;3.36;71.70
54920;BME280;63804;53.120;8.764;2024-03-08T03:05:47;102281.69;;;3.32;71.78
54920;BME280;63804;53.120;8.764;2024-03-08T03:08:15;102274.81;;;3.28;71.99
54920;BME280;63804;53.120;8.764;2024-03-08T03:10:44;102273.97;;;3.26;71.46
54920;BME280;63804;53.120;8.764;2024-03-08T03:13:13;102279.19;;;3.27;71.52
54920;BME280;63804;53.120;8.764;2024-03-08T03:15:41;102273.81;;;3.35;71.34
54920;BME280;63804;53.120;8.764;2024-03-08T03:18:11;102275.69;;;3.28;71.49
54920;BME280;63804;53.120;8.764;2024-03-08T03:20:39;102274.03;;;3.23;71.59
54920;BME280;63804;53.120;8.764;2024-03-08T03:23:10;102272.28;;;3.23;71.58
54920;BME280;63804;53.120;8.764;2024-03-08T03:25:43;102262.63;;;3.27;71.41
54920;BME280;63804;53.120;8.764;2024-03-08T03:28:10;102270.41;;;3.30;70.99
54920;BME280;63804;53.120;8.764;2024-03-08T03:30:45;102267.19;;;3.17;71.29
54920;BME280;63804;53.120;8.764;2024-03-08T03:33:14;102264.59;;;3.14;71.76
54920;BME280;63804;53.120;8.764;2024-03-08T03:35:43;102260.22;;;3.14;71.85
54920;BME280;63804;53.120;8.764;2024-03-08T03:38:11;102264.66;;;3.11;71.87
54920;BME280;63804;53.120;8.764;2024-03-08T03:40:41;102261.13;;;3.13;71.72
54920;BME280;63804;53.120;8.764;2024-03-08T03:43:09;102267.28;;;3.11;71.63
54920;BME280;63804;53.120;8.764;2024-03-08T03:45:39;102263.66;;;3.18;71.71
54920;BME280;63804;53.120;8.764;2024-03-08T03:48:09;102264.47;;;3.20;71.56
54920;BME280;63804;53.120;8.764;2024-03-08T03:50:38;102265.44;;;3.16;71.31
54920;BME280;63804;53.120;8.764;2024-03-08T03:53:06;102262.03;;;3.11;71.77
54920;BME280;63804;53.120;8.764;2024-03-08T03:55:37;102267.19;;;3.17;71.69
54920;BME280;63804;53.120;8.764;2024-03-08T03:58:08;102262.03;;;3.11;71.61
54920;BME280;63804;53.120;8.764;2024-03-08T04:00:38;102266.28;;;3.16;71.58
54920;BME280;63804;53.120;8.764;2024-03-08T04:03:06;102270.06;;;3.02;71.85
54920;BME280;63804;53.120;8.764;2024-03-08T04:05:34;102261.31;;;3.03;72.19
54920;BME280;63804;53.120;8.764;2024-03-08T04:08:02;102266.69;;;2.95;72.21
54920;BME280;63804;53.120;8.764;2024-03-08T04:10:30;102251.75;;;3.02;72.12
54920;BME280;63804;53.120;8.764;2024-03-08T04:12:57;102260.59;;;2.95;71.89
54920;BME280;63804;53.120;8.764;2024-03-08T04:15:24;102265.09;;;2.86;72.61
54920;BME280;63804;53.120;8.764;2024-03-08T04:17:51;102263.75;;;2.64;72.74
54920;BME280;63804;53.120;8.764;2024-03-08T04:20:20;102256.50;;;2.80;72.81
54920;BME280;63804;53.120;8.764;2024-03-08T04:22:48;102262.53;;;2.82;73.01
54920;BME280;63804;53.120;8.764;2024-03-08T04:25:17;102258.88;;;2.92;72.50
54920;BME280;63804;53.120;8.764;2024-03-08T04:27:44;102257.94;;;2.96;72.25
54920;BME280;63804;53.120;8.764;2024-03-08T04:30:12;102247.66;;;2.87;72.41
54920;BME280;63804;53.120;8.764;2024-03-08T04:32:40;102251.91;;;2.92;72.37
54920;BME280;63804;53.120;8.764;2024-03-08T04:35:08;102256.38;;;2.86;72.43
54920;BME280;63804;53.120;8.764;2024-03-08T04:37:36;102253.97;;;2.74;72.98
54920;BME280;63804;53.120;8.764;2024-03-08T04:40:04;102254.13;;;2.64;73.21
54920;BME280;63804;53.120;8.764;2024-03-08T04:42:32;102254.00;;;2.71;73.48
54920;BME280;63804;53.120;8.764;2024-03-08T04:45:02;102250.41;;;2.78;72.93
54920;BME280;63804;53.120;8.764;2024-03-08T04:47:31;102247.06;;;2.69;73.22
54920;BME280;63804;53.120;8.764;2024-03-08T04:49:58;102246.97;;;2.76;73.29
54920;BME280;63804;53.120;8.764;2024-03-08T04:52:26;102241.69;;;2.77;73.11
54920;BME280;63804;53.120;8.764;2024-03-08T04:54:55;102244.38;;;2.74;73.16
54920;BME280;63804;53.120;8.764;2024-03-08T04:57:23;102239.13;;;2.74;73.02
54920;BME280;63804;53.120;8.764;2024-03-08T04:59:50;102236.59;;;2.69;73.24
54920;BME280;63804;53.120;8.764;2024-03-08T05:02:20;102242.69;;;2.72;73.25
54920;BME280;63804;53.120;8.764;2024-03-08T05:04:49;102232.28;;;2.68;73.46
54920;BME280;63804;53.120;8.764;2024-03-08T05:07:18;102230.69;;;2.60;73.38
54920;BME280;63804;53.120;8.764;2024-03-08T05:09:46;102227.03;;;2.68;73.12
54920;BME280;63804;53.120;8.764;2024-03-08T05:12:19;102229.91;;;2.52;73.83
54920;BME280;63804;53.120;8.764;2024-03-08T05:14:46;102223.06;;;2.46;74.07
54920;BME280;63804;53.120;8.764;2024-03-08T05:17:17;102224.69;;;2.52;73.81
54920;BME280;63804;53.120;8.764;2024-03-08T05:19:45;102226.28;;;2.63;73.45
54920;BME280;63804;53.120;8.764;2024-03-08T05:22:12;102225.19;;;2.74;73.50
54920;BME280;63804;53.120;8.764;2024-03-08T05:24:40;102224.59;;;2.58;73.30
54920;BME280;63804;53.120;8.764;2024-03-08T05:27:07;102217.75;;;2.51;73.76
54920;BME280;63804;53.120;8.764;2024-03-08T05:29:35;102218.41;;;2.63;73.57
54920;BME280;63804;53.120;8.764;2024-03-08T05:32:02;102215.81;;;2.63;73.41
54920;BME280;63804;53.120;8.764;2024-03-08T05:34:31;102213.53;;;2.42;74.06
54920;BME280;63804;53.120;8.764;2024-03-08T05:36:58;102207.38;;;2.46;74.09
54920;BME280;63804;53.120;8.764;2024-03-08T05:39:27;102207.09;;;2.61;73.59
54920;BME280;63804;53.120;8.764;2024-03-08T05:41:55;102206.50;;;2.44;73.96
54920;BME280;63804;53.120;8.764;2024-03-08T05:44:23;102211.69;;;2.49;74.08
54920;BME280;63804;53.120;8.764;2024-03-08T05:46:50;102203.84;;;2.47;73.92
54920;BME280;63804;53.120;8.764;2024-03-08T05:49:17;102215.53;;;2.26;74.65
54920;BME280;63804;53.120;8.764;2024-03-08T05:51:45;102198.91;;;2.29;74.49
54920;BME280;63804;53.120;8.764;2024-03-08T05:54:14;102209.38;;;2.29;74.46
54920;BME280;63804;53.120;8.764;2024-03-08T05:56:45;102208.72;;;2.16;74.83
54920;BME280;63804;53.120;8.764;2024-03-08T05:59:15;102206.75;;;2.29;74.78
54920;BME280;63804;53.120;8.764;2024-03-08T06:01:42;102209.13;;;2.44;73.99
54920;BME280;63804;53.120;8.764;2024-03-08T06:04:10;102208.41;;;2.36;73.93
54920;BME280;63804;53.120;8.764;2024-03-08T06:06:41;102206.63;;;2.36;74.27
54920;BME280;63804;53.120;8.764;2024-03-08T06:09:08;102209.25;;;2.38;73.86
54920;BME280;63804;53.120;8.764;2024-03-08T06:11:39;102207.50;;;2.38;74.16
54920;BME280;63804;53.120;8.764;2024-03-08T06:14:07;102203.97;;;2.41;73.76
54920;BME280;63804;53.120;8.764;2024-03-08T06:16:34;102204.72;;;2.48;73.73
54920;BME280;63804;53.120;8.764;2024-03-08T06:19:03;102201.16;;;2.52;73.51
54920;BME280;63804;53.120;8.764;2024-03-08T06:21:31;102186.53;;;2.41;73.99
54920;BME280;63804;53.120;8.764;2024-03-08T06:23:59;102188.28;;;2.41;73.75
54920;BME280;63804;53.120;8.764;2024-03-08T06:26:27;102184.19;;;2.25;74.18
54920;BME280;63804;53.120;8.764;2024-03-08T06:29:00;102177.97;;;2.33;74.10
54920;BME280;63804;53.120;8.764;2024-03-08T06:31:28;102183.00;;;2.44;73.83
54920;BME280;63804;53.120;8.764;2024-03-08T06:33:55;102186.44;;;2.46;73.99
54920;BME280;63804;53.120;8.764;2024-03-08T06:36:23;102188.97;;;2.51;73.57
54920;BME280;63804;53.120;8.764;2024-03-08T06:38:52;102178.53;;;2.52;73.84
54920;BME280;63804;53.120;8.764;2024-03-08T06:41:20;102177.84;;;2.39;73.93
54920;BME280;63804;53.120;8.764;2024-03-08T06:43:47;102172.25;;;2.59;73.63
54920;BME280;63804;53.120;8.764;2024-03-08T06:46:16;102180.97;;;2.61;73.50
54920;BME280;63804;53.120;8.764;2024-03-08T06:48:43;102179.81;;;2.76;72.94
54920;BME280;63804;53.120;8.764;2024-03-08T06:51:13;102171.78;;;2.87;72.74
54920;BME280;63804;53.120;8.764;2024-03-08T06:53:42;102186.34;;;3.00;72.27
54920;BME280;63804;53.120;8.764;2024-03-08T06:56:09;102180.19;;;3.03;72.09
54920;BME280;63804;53.120;8.764;2024-03-08T06:58:36;102189.81;;;3.02;72.11
54920;BME280;63804;53.120;8.764;2024-03-08T07:01:04;102189.06;;;2.96;72.17
54920;BME280;63804;53.120;8.764;2024-03-08T07:03:35;102187.16;;;3.04;71.75
54920;BME280;63804;53.120;8.764;2024-03-08T07:06:02;102183.69;;;3.03;71.87
54920;BME280;63804;53.120;8.764;2024-03-08T07:08:31;102187.25;;;2.98;71.99
54920;BME280;63804;53.120;8.764;2024-03-08T07:10:59;102189.66;;;3.10;71.98
54920;BME280;63804;53.120;8.764;2024-03-08T07:13:27;102192.06;;;3.21;71.40
54920;BME280;63804;53.120;8.764;2024-03-08T07:15:56;102184.94;;;3.29;71.07
54920;BME280;63804;53.120;8.764;2024-03-08T07:18:23;102186.63;;;3.30;71.02
54920;BME280;63804;53.120;8.764;2024-03-08T07:20:51;102173.56;;;3.30;70.46
54920;BME280;63804;53.120;8.764;2024-03-08T07:23:18;102175.22;;;3.34;71.03
54920;BME280;63804;53.120;8.764;2024-03-08T07:26:07;102180.34;;;3.38;70.58
54920;BME280;63804;53.120;8.764;2024-03-08T07:28:34;102186.28;;;3.48;70.35
54920;BME280;63804;53.120;8.764;2024-03-08T07:31:02;102183.59;;;3.51;70.30
54920;BME280;63804;53.120;8.764;2024-03-08T07:33:41;102176.94;;;3.35;70.48
54920;BME280;63804;53.120;8.764;2024-03-08T07:36:09;102182.84;;;3.45;70.34
54920;BME280;63804;53.120;8.764;2024-03-08T07:38:37;102172.38;;;3.45;70.10
54920;BME280;63804;53.120;8.764;2024-03-08T07:41:04;102177.78;;;3.37;70.26
54920;BME280;63804;53.120;8.764;2024-03-08T07:43:32;102186.22;;;3.51;70.42
54920;BME280;63804;53.120;8.764;2024-03-08T07:46:00;102174.84;;;3.51;69.96
54920;BME280;63804;53.120;8.764;2024-03-08T07:48:27;102166.97;;;3.52;69.47
54920;BME280;63804;53.120;8.764;2024-03-08T07:50:55;102170.97;;;3.69;69.34
54920;BME280;63804;53.120;8.764;2024-03-08T07:53:22;102175.97;;;3.79;68.72
54920;BME280;63804;53.120;8.764;2024-03-08T07:55:52;102180.44;;;3.76;68.66
54920;BME280;63804;53.120;8.764;2024-03-08T07:58:20;102168.75;;;3.89;68.23
54920;BME280;63804;53.120;8.764;2024-03-08T08:00:47;102163.38;;;3.95;68.41
54920;BME280;63804;53.120;8.764;2024-03-08T08:03:14;102178.97;;;4.01;68.43
54920;BME280;63804;53.120;8.764;2024-03-08T08:05:42;102171.13;;;4.00;68.40
54920;BME280;63804;53.120;8.764;2024-03-08T08:08:12;102169.47;;;3.97;68.68
54920;BME280;63804;53.120;8.764;2024-03-08T08:10:43;102171.78;;;4.09;67.88
54920;BME280;63804;53.120;8.764;2024-03-08T08:13:10;102163.75;;;4.15;67.42
54920;BME280;63804;53.120;8.764;2024-03-08T08:15:38;102158.31;;;4.25;67.53
54920;BME280;63804;53.120;8.764;2024-03-08T08:18:05;102165.06;;;4.33;67.27
54920;BME280;63804;53.120;8.764;2024-03-08T08:20:33;102170.19;;;4.38;66.92
54920;BME280;63804;53.120;8.764;2024-03-08T08:23:01;102166.69;;;4.39;66.83
54920;BME280;63804;53.120;8.764;2024-03-08T08:25:28;102165.47;;;4.18;66.69
54920;BME280;63804;53.120;8.764;2024-03-08T08:27:56;102164.41;;;4.25;67.11
54920;BME280;63804;53.120;8.764;2024-03-08T08:30:23;102167.50;;;4.41;66.66
54920;BME280;63804;53.120;8.764;2024-03-08T08:32:50;102159.56;;;4.44;66.25
54920;BME280;63804;53.120;8.764;2024-03-08T08:35:18;102149.88;;;4.48;66.15
54920;BME280;63804;53.120;8.764;2024-03-08T08:37:47;102158.06;;;4.35;66.48
54920;BME280;63804;53.120;8.764;2024-03-08T08:40:14;102150.53;;;4.56;66.38
54920;BME280;63804;53.120;8.764;2024-03-08T08:42:42;102147.63;;;4.67;65.51
54920;BME280;63804;53.120;8.764;2024-03-08T08:45:10;102153.66;;;4.70;65.66
54920;BME280;63804;53.120;8.764;2024-03-08T08:47:46;102145.19;;;4.92;65.31
54920;BME280;63804;53.120;8.764;2024-03-08T08:50:14;102147.63;;;4.98;65.04
54920;BME280;63804;53.120;8.764;2024-03-08T08:52:41;102145.31;;;4.87;65.34
54920;BME280;63804;53.120;8.764;2024-03-08T08:55:12;102142.75;;;4.85;64.87
54920;BME280;63804;53.120;8.764;2024-03-08T08:57:42;102133.81;;;4.91;64.72
54920;BME280;63804;53.120;8.764;2024-03-08T09:00:10;102138.34;;;4.86;64.86
54920;BME280;63804;53.120;8.764;2024-03-08T09:02:42;102133.88;;;4.89;64.42
54920;BME280;63804;53.120;8.764;2024-03-08T09:05:10;102130.97;;;4.99;64.09
54920;BME280;63804;53.120;8.764;2024-03-08T09:07:39;102128.53;;;4.93;64.18
54920;BME280;63804;53.120;8.764;2024-03-08T09:10:06;102118.72;;;4.99;64.34
54920;BME280;63804;53.120;8.764;2024-03-08T09:12:39;102126.38;;;5.07;64.26
54920;BME280;63804;53.120;8.764;2024-03-08T09:15:07;102121.81;;;5.13;64.00
54920;BME280;63804;53.120;8.764;2024-03-08T09:17:41;102117.41;;;5.14;64.16
54920;BME280;63804;53.120;8.764;2024-03-08T09:20:09;102116.31;;;5.23;64.00
54920;BME280;63804;53.120;8.764;2024-03-08T09:22:45;102108.19;;;5.30;63.82
54920;BME280;63804;53.120;8.764;2024-03-08T09:25:15;102111.72;;;5.29;63.80
54920;BME280;63804;53.120;8.764;2024-03-08T09:27:43;102111.09;;;5.49;63.76
54920;BME280;63804;53.120;8.764;2024-03-08T09:30:11;102100.50;;;5.52;63.36
54920;BME280;63804;53.120;8.764;2024-03-08T09:32:40;102102.97;;;5.58;62.98
54920;BME280;63804;53.120;8.764;2024-03-08T09:35:08;102096.38;;;5.73;63.33
54920;BME280;63804;53.120;8.764;2024-03-08T09:37:35;102089.84;;;5.85;62.44
54920;BME280;63804;53.120;8.764;2024-03-08T09:40:03;102086.47;;;5.81;62.63
54920;BME280;63804;53.120;8.764;2024-03-08T09:42:37;102087.47;;;5.77;61.84
54920;BME280;63804;53.120;8.764;2024-03-08T09:45:08;102080.38;;;5.79;62.52
54920;BME280;63804;53.120;8.764;2024-03-08T09:47:40;102076.84;;;5.80;62.38
54920;BME280;63804;53.120;8.764;2024-03-08T09:50:08;102075.69;;;5.89;62.70
54920;BME280;63804;53.120;8.764;2024-03-08T09:52:39;102066.72;;;5.96;62.07
54920;BME280;63804;53.120;8.764;2024-03-08T09:55:07;102061.16;;;6.05;62.06
54920;BME280;63804;53.120;8.764;2024-03-08T09:57:39;102059.03;;;6.17;61.63
54920;BME280;63804;53.120;8.764;2024-03-08T10:00:07;102055.38;;;6.21;61.50
54920;BME280;63804;53.120;8.764;2024-03-08T10:02:51;102039.16;;;6.33;60.95
54920;BME280;63804;53.120;8.764;2024-03-08T10:05:21;102038.47;;;6.28;60.03
54920;BME280;63804;53.120;8.764;2024-03-08T10:07:49;102034.59;;;6.38;60.38
54920;BME280;63804;53.120;8.764;2024-03-08T10:10:16;102042.16;;;6.47;59.62
54920;BME280;63804;53.120;8.764;2024-03-08T10:12:45;102027.94;;;6.53;59.59
54920;BME280;63804;53.120;8.764;2024-03-08T10:15:13;102031.44;;;6.53;58.89
54920;BME280;63804;53.120;8.764;2024-03-08T10:17:43;102038.97;;;6.63;58.78
54920;BME280;63804;53.120;8.764;2024-03-08T10:20:15;102025.13;;;6.57;58.33
54920;BME280;63804;53.120;8.764;2024-03-08T10:22:43;102019.75;;;6.61;58.23
54920;BME280;63804;53.120;8.764;2024-03-08T10:25:24;102020.25;;;6.70;58.72
54920;BME280;63804;53.120;8.764;2024-03-08T10:27:51;102013.13;;;6.74;58.79
54920;BME280;63804;53.120;8.764;2024-03-08T10:30:18;102014.59;;;6.81;58.39
54920;BME280;63804;53.120;8.764;2024-03-08T10:32:48;102010.81;;;6.88;58.55
54920;BME280;63804;53.120;8.764;2024-03-08T10:35:15;102008.13;;;6.90;57.72
54920;BME280;63804;53.120;8.764;2024-03-08T10:37:51;102001.78;;;6.95;57.70
54920;BME280;63804;53.120;8.764;2024-03-08T10:40:28;101992.00;;;6.99;57.78
54920;BME280;63804;53.120;8.764;2024-03-08T10:42:59;101994.56;;;7.00;57.72
54920;BME280;63804;53.120;8.764;2024-03-08T10:45:37;101983.72;;;7.08;57.57
54920;BME280;63804;53.120;8.764;2024-03-08T10:48:30;101979.25;;;7.10;57.15
54920;BME280;63804;53.120;8.764;2024-03-08T10:51:05;101986.06;;;7.16;57.87
54920;BME280;63804;53.120;8.764;2024-03-08T10:53:36;101972.75;;;7.19;57.64
54920;BME280;63804;53.120;8.764;2024-03-08T10:56:04;101963.69;;;7.26;56.87
54920;BME280;63804;53.120;8.764;2024-03-08T10:58:33;101960.75;;;7.33;56.70
54920;BME280;63804;53.120;8.764;2024-03-08T11:01:02;101961.06;;;7.26;56.17
54920;BME280;63804;53.120;8.764;2024-03-08T11:08:37;101955.28;;;7.16;56.49
54920;BME280;63804;53.120;8.764;2024-03-08T11:11:23;101947.63;;;7.32;56.38
54920;BME280;63804;53.120;8.764;2024-03-08T11:13:59;101944.50;;;7.44;56.67
54920;BME280;63804;53.120;8.764;2024-03-08T11:18:55;101932.53;;;7.36;55.25
54920;BME280;63804;53.120;8.764;2024-03-08T11:24:06;101935.72;;;7.44;55.33
54920;BME280;63804;53.120;8.764;2024-03-08T11:26:35;101920.84;;;7.43;55.66
54920;BME280;63804;53.120;8.764;2024-03-08T11:32:19;101918.41;;;7.58;54.77
54920;BME280;63804;53.120;8.764;2024-03-08T11:34:50;101905.19;;;7.60;55.20
54920;BME280;63804;53.120;8.764;2024-03-08T11:37:19;101906.69;;;7.66;55.10
54920;BME280;63804;53.120;8.764;2024-03-08T11:39:52;101912.75;;;7.68;55.15
54920;BME280;63804;53.120;8.764;2024-03-08T11:42:19;101901.09;;;7.73;55.41
54920;BME280;63804;53.120;8.764;2024-03-08T11:44:47;101894.53;;;7.82;55.19
54920;BME280;63804;53.120;8.764;2024-03-08T11:47:15;101902.19;;;7.88;53.51
54920;BME280;63804;53.120;8.764;2024-03-08T11:49:44;101891.66;;;7.88;54.71
54920;BME280;63804;53.120;8.764;2024-03-08T11:52:12;101897.91;;;7.86;54.18
54920;BME280;63804;53.120;8.764;2024-03-08T11:54:43;101888.38;;;7.83;54.17
54920;BME280;63804;53.120;8.764;2024-03-08T11:57:18;101885.09;;;7.97;54.49
54920;BME280;63804;53.120;8.764;2024-03-08T11:59:52;101876.84;;;8.04;54.54
54920;BME280;63804;53.120;8.764;2024-03-08T12:02:23;101871.72;;;8.01;54.56
54920;BME280;63804;53.120;8.764;2024-03-08T12:05:00;101869.13;;;8.00;52.68
54920;BME280;63804;53.120;8.764;2024-03-08T12:07:30;101862.31;;;8.15;52.85
54920;BME280;63804;53.120;8.764;2024-03-08T12:12:47;101859.53;;;7.99;53.48
54920;BME280;63804;53.120;8.764;2024-03-08T12:15:15;101852.69;;;8.14;53.00
54920;BME280;63804;53.120;8.764;2024-03-08T12:17:47;101845.41;;;8.19;52.95
54920;BME280;63804;53.120;8.764;2024-03-08T12:20:22;101840.59;;;8.28;52.18
54920;BME280;63804;53.120;8.764;2024-03-08T12:22:50;101839.44;;;8.34;52.45
54920;BME280;63804;53.120;8.764;2024-03-08T12:25:41;101834.03;;;8.37;50.92
54920;BME280;63804;53.120;8.764;2024-03-08T12:28:09;101824.81;;;8.27;51.77
54920;BME280;63804;53.120;8.764;2024-03-08T12:30:48;101818.69;;;8.26;51.13
54920;BME280;63804;53.120;8.764;2024-03-08T12:33:16;101819.66;;;8.24;51.63
54920;BME280;63804;53.120;8.764;2024-03-08T12:35:51;101807.00;;;8.32;51.18
54920;BME280;63804;53.120;8.764;2024-03-08T12:38:22;101807.66;;;8.37;51.57
54920;BME280;63804;53.120;8.764;2024-03-08T12:40:58;101793.53;;;8.38;51.22
54920;BME280;63804;53.120;8.764;2024-03-08T12:43:26;101801.56;;;8.54;51.11
54920;BME280;63804;53.120;8.764;2024-03-08T12:45:55;101790.84;;;8.57;50.63
54920;BME280;63804;53.120;8.764;2024-03-08T12:48:22;101794.34;;;8.58;50.46
54920;BME280;63804;53.120;8.764;2024-03-08T12:50:49;101781.59;;;8.48;50.91
54920;BME280;63804;53.120;8.764;2024-03-08T12:53:18;101785.66;;;8.56;50.66
54920;BME280;63804;53.120;8.764;2024-03-08T12:55:45;101776.22;;;8.50;50.38
54920;BME280;63804;53.120;8.764;2024-03-08T12:58:12;101769.03;;;8.53;51.00
54920;BME280;63804;53.120;8.764;2024-03-08T13:00:40;101758.16;;;8.60;51.35
54920;BME280;63804;53.120;8.764;2024-03-08T13:03:10;101758.16;;;8.60;50.20
54920;BME280;63804;53.120;8.764;2024-03-08T13:05:38;101752.34;;;8.53;50.44
54920;BME280;63804;53.120;8.764;2024-03-08T13:08:10;101755.16;;;8.67;50.64
54920;BME280;63804;53.120;8.764;2024-03-08T13:10:39;101745.22;;;8.72;50.77
54920;BME280;63804;53.120;8.764;2024-03-08T13:13:07;101749.25;;;8.79;50.83
54920;BME280;63804;53.120;8.764;2024-03-08T13:15:36;101745.44;;;8.85;50.88
54920;BME280;63804;53.120;8.764;2024-03-08T13:18:03;101741.03;;;8.86;51.57
54920;BME280;63804;53.120;8.764;2024-03-08T13:20:32;101747.31;;;8.83;51.06
54920;BME280;63804;53.120;8.764;2024-03-08T13:23:12;101735.81;;;8.84;51.13
54920;BME280;63804;53.120;8.764;2024-03-08T13:25:39;101730.28;;;8.89;51.27